CheckWX is a tool to help pilots better visualize weather data.  It is not intended as a substitute for an official pre-flight weather briefing.

23:43:29 UTC

GCTS TAF
Tenerife South Airport
Tenerife Island, Spain
TAF GCTS 110200Z 1103/1203 31004KT 9999 FEW025 TX28/1114Z TN21/1106Z BECMG 1106/1108 06012KT BECMG 1108/1109 08022KT PROB30 TEMPO 1112/1116 23007KT

Jul-11@
03:00 UTC

Jul-11 @ 03:00 UTC

Jul-11@
06:00 UTC

Jul-11 @ 06:00 UTC

TAF GCTS 110200Z 1103/1203 31004KT 9999 FEW025 TX28/1114Z TN21/1106Z

Expired

Wind
  • 310° at 4 KTS
Cloud Levels
  • Few at 2,500' AGL

Jul-11@
06:00 UTC

Jul-11 @ 06:00 UTC

Jul-11@
08:00 UTC

Jul-11 @ 08:00 UTC

BECMG 1106/1108 06012KT

Expired

Wind
  • 060° at 12 KTS
Cloud Levels
  • Few at 2,500' AGL

Jul-11@
08:00 UTC

Jul-11 @ 08:00 UTC

Jul-12@
03:00 UTC

Jul-12 @ 03:00 UTC

BECMG 1108/1109 08022KT

Becoming

Becoming Conditions expected by Sat, Jul 11, 2020 @ 09:00 UTC

Wind
  • 080° at 22 KTS
Cloud Levels
  • Few at 2,500' AGL

Jul-11@
12:00 UTC

Jul-11 @ 12:00 UTC

Jul-11@
16:00 UTC

Jul-11 @ 16:00 UTC

PROB30 TEMPO 1112/1116 23007KT

Expired

Wind
  • 230° at 7 KTS
Cloud Levels